createdAt,value
2023-07-31T00:02:45.208Z,6.90
2023-07-31T00:07:47.145Z,8.30
2023-07-31T00:12:48.854Z,7.40
2023-07-31T00:17:50.845Z,8.90
2023-07-31T00:22:52.632Z,9.60
2023-07-31T00:27:54.293Z,9.50
2023-07-31T00:32:56.055Z,9.60
2023-07-31T00:37:59.534Z,7.80
2023-07-31T00:43:03.326Z,6.80
2023-07-31T00:48:06.139Z,6.90
2023-07-31T00:53:08.049Z,8.00
2023-07-31T00:58:09.922Z,7.80
2023-07-31T01:03:12.328Z,7.10
2023-07-31T01:08:20.081Z,6.20
2023-07-31T01:13:22.000Z,6.80
2023-07-31T01:18:23.699Z,6.30
2023-07-31T01:23:25.560Z,6.10
2023-07-31T01:28:57.950Z,7.00
2023-07-31T01:34:02.039Z,7.10
2023-07-31T01:39:03.990Z,6.70
2023-07-31T01:44:06.342Z,7.10
2023-07-31T01:49:08.149Z,7.20
2023-07-31T01:54:09.889Z,7.70
2023-07-31T01:59:11.882Z,7.20
2023-07-31T02:04:13.774Z,7.10
2023-07-31T02:09:15.532Z,8.30
2023-07-31T02:14:17.323Z,7.90
2023-07-31T02:19:19.137Z,6.30
2023-07-31T02:24:20.812Z,8.50
2023-07-31T02:29:22.743Z,9.10
2023-07-31T02:34:24.544Z,9.50
2023-07-31T02:39:26.396Z,8.80
2023-07-31T02:44:28.275Z,11.70
2023-07-31T02:49:29.942Z,12.00
2023-07-31T02:54:31.722Z,11.70
2023-07-31T02:59:36.591Z,28.90
2023-07-31T03:04:38.449Z,36.00
2023-07-31T03:09:40.244Z,39.00
2023-07-31T03:14:42.204Z,35.70
2023-07-31T03:19:44.083Z,35.40
2023-07-31T03:24:45.755Z,36.20
2023-07-31T03:29:47.532Z,35.70
2023-07-31T03:34:49.303Z,40.30
2023-07-31T03:39:53.748Z,52.30
2023-07-31T03:44:55.524Z,53.00
2023-07-31T03:49:57.402Z,57.30
2023-07-31T03:54:59.288Z,62.60
2023-07-31T04:00:03.930Z,58.30
2023-07-31T04:05:05.845Z,59.00
2023-07-31T04:10:08.464Z,56.80
2023-07-31T04:15:11.433Z,52.20
2023-07-31T04:20:13.285Z,46.00
2023-07-31T04:25:15.167Z,45.70
2023-07-31T04:30:16.887Z,43.40
2023-07-31T04:35:18.832Z,38.00
2023-07-31T04:40:20.534Z,35.70
2023-07-31T04:45:22.473Z,36.00
2023-07-31T04:50:24.349Z,34.10
2023-07-31T04:55:26.228Z,32.00
2023-07-31T05:00:28.105Z,34.90
2023-07-31T05:05:29.983Z,35.00
2023-07-31T05:10:31.863Z,33.30
2023-07-31T05:15:33.736Z,34.90
2023-07-31T05:20:35.509Z,34.30
2023-07-31T05:25:37.300Z,33.10
2023-07-31T05:30:39.058Z,32.00
2023-07-31T05:35:40.840Z,33.00
2023-07-31T05:40:44.151Z,32.60
2023-07-31T05:45:46.300Z,34.10
2023-07-31T05:50:48.005Z,33.10
2023-07-31T05:55:49.749Z,34.10
2023-07-31T06:00:51.627Z,33.20
2023-07-31T06:05:53.650Z,33.10
2023-07-31T06:10:55.419Z,31.10
2023-07-31T06:15:57.272Z,36.00
2023-07-31T06:20:59.110Z,34.80
2023-07-31T06:26:00.952Z,35.70
2023-07-31T06:31:02.693Z,35.70
2023-07-31T06:36:04.711Z,34.70
2023-07-31T06:41:06.515Z,36.40
2023-07-31T06:46:08.638Z,34.10
2023-07-31T06:51:10.546Z,36.50
2023-07-31T06:56:12.367Z,36.60
2023-07-31T07:01:14.236Z,39.70
2023-07-31T07:06:16.083Z,37.90
2023-07-31T07:11:17.803Z,40.70
2023-07-31T07:16:19.683Z,45.20
2023-07-31T07:21:21.450Z,37.10
2023-07-31T07:26:23.418Z,38.00
2023-07-31T07:31:25.329Z,39.90
2023-07-31T07:36:29.206Z,39.70
2023-07-31T07:41:31.078Z,39.10
2023-07-31T07:46:32.989Z,42.10
2023-07-31T07:51:34.980Z,49.40
2023-07-31T07:56:37.088Z,45.60
2023-07-31T08:01:38.912Z,44.40
2023-07-31T08:06:41.036Z,47.60
2023-07-31T08:11:43.316Z,47.60
2023-07-31T08:16:45.216Z,45.20
2023-07-31T08:21:47.152Z,44.00
2023-07-31T08:26:48.911Z,44.90
2023-07-31T08:31:50.918Z,42.90
2023-07-31T08:36:52.642Z,47.80
2023-07-31T08:41:59.402Z,52.50
2023-07-31T08:47:01.434Z,50.60
2023-07-31T08:52:03.339Z,48.30
2023-07-31T08:57:06.212Z,48.30
2023-07-31T09:02:09.098Z,47.60
2023-07-31T09:07:11.097Z,43.00
2023-07-31T09:12:12.867Z,48.40
2023-07-31T09:17:14.649Z,46.10
2023-07-31T09:22:16.335Z,44.80
2023-07-31T09:27:18.413Z,49.60
2023-07-31T09:32:20.390Z,45.60
2023-07-31T09:37:22.265Z,46.70
2023-07-31T09:42:29.367Z,48.50
2023-07-31T09:47:31.008Z,49.10
2023-07-31T09:52:32.837Z,48.70
2023-07-31T09:57:34.574Z,49.90
2023-07-31T10:02:36.606Z,47.70
2023-07-31T10:07:39.027Z,44.70
2023-07-31T10:12:40.736Z,44.70
2023-07-31T10:17:42.777Z,45.00
2023-07-31T10:22:45.210Z,43.90
2023-07-31T10:27:46.868Z,44.30
2023-07-31T10:32:48.832Z,46.60
2023-07-31T10:37:50.608Z,43.20
2023-07-31T10:42:53.451Z,42.20
2023-07-31T10:48:02.608Z,42.20
2023-07-31T10:53:04.352Z,44.00
2023-07-31T10:58:09.723Z,42.40
2023-07-31T11:03:26.302Z,43.50
2023-07-31T11:08:35.500Z,45.20
2023-07-31T11:13:45.095Z,44.50
2023-07-31T11:18:47.808Z,44.50
2023-07-31T11:23:50.899Z,42.40
2023-07-31T11:44:27.259Z,36.30
2023-07-31T11:49:30.521Z,37.80
2023-07-31T11:54:32.215Z,39.90
2023-07-31T11:59:34.005Z,36.00
2023-07-31T12:04:35.848Z,36.30
2023-07-31T12:09:37.872Z,36.70
2023-07-31T12:14:39.806Z,35.50
2023-07-31T12:19:41.434Z,26.50
2023-07-31T12:24:43.785Z,24.80
2023-07-31T12:29:45.451Z,23.00
2023-07-31T12:34:47.431Z,24.90
2023-07-31T12:39:49.314Z,24.30
2023-07-31T12:44:51.385Z,27.00
2023-07-31T12:49:53.050Z,23.10
2023-07-31T12:54:54.767Z,25.00
2023-07-31T12:59:56.443Z,25.60
2023-07-31T13:04:58.157Z,22.90
2023-07-31T13:10:00.062Z,24.10
2023-07-31T13:15:02.006Z,22.80
2023-07-31T13:20:04.580Z,23.80
2023-07-31T13:25:07.076Z,23.30
2023-07-31T13:30:09.422Z,22.20
2023-07-31T13:35:11.184Z,22.80
2023-07-31T13:40:13.278Z,20.90
2023-07-31T13:45:15.270Z,21.70
2023-07-31T13:50:17.356Z,20.30
2023-07-31T13:55:19.314Z,20.80
2023-07-31T14:00:21.120Z,19.40
2023-07-31T14:05:22.937Z,20.40
2023-07-31T14:10:24.867Z,18.60
2023-07-31T14:15:27.151Z,16.80
2023-07-31T14:20:29.278Z,19.00
2023-07-31T14:25:31.078Z,20.30
2023-07-31T14:30:32.880Z,17.90
2023-07-31T14:35:35.929Z,17.10
2023-07-31T14:40:37.648Z,22.00
2023-07-31T14:45:39.451Z,19.90
2023-07-31T14:50:41.315Z,18.70
2023-07-31T14:55:43.190Z,15.90
2023-07-31T15:00:45.606Z,18.20
2023-07-31T15:05:47.279Z,20.90
2023-07-31T15:10:49.129Z,19.20
2023-07-31T15:15:51.009Z,18.80
2023-07-31T15:20:54.542Z,18.60
2023-07-31T15:25:56.180Z,18.60
2023-07-31T15:30:58.002Z,18.70
2023-07-31T15:35:59.872Z,19.30
2023-07-31T15:41:01.920Z,20.00
2023-07-31T15:46:03.997Z,18.30
2023-07-31T15:51:05.694Z,14.40
2023-07-31T15:56:07.912Z,17.50
2023-07-31T16:01:09.855Z,17.00
2023-07-31T16:06:11.841Z,16.00
2023-07-31T16:11:13.679Z,17.10
2023-07-31T16:16:15.798Z,18.50
2023-07-31T16:21:17.554Z,16.80
2023-07-31T16:26:19.580Z,15.00
2023-07-31T16:31:21.590Z,14.70
2023-07-31T16:36:23.318Z,14.50
2023-07-31T16:41:25.200Z,16.30
2023-07-31T16:46:27.073Z,15.30
2023-07-31T16:51:29.051Z,16.20
2023-07-31T16:56:32.891Z,15.70
2023-07-31T17:01:38.990Z,15.30
2023-07-31T17:06:41.101Z,15.70
2023-07-31T17:11:42.939Z,14.90
2023-07-31T17:16:44.987Z,15.00
2023-07-31T17:21:46.984Z,14.00
2023-07-31T17:26:48.748Z,13.20
2023-07-31T17:31:50.631Z,13.00
2023-07-31T17:36:52.345Z,13.00
2023-07-31T17:41:54.182Z,14.90
2023-07-31T17:46:56.097Z,13.00
2023-07-31T17:51:58.044Z,13.80
2023-07-31T17:56:59.922Z,15.00
2023-07-31T18:02:01.862Z,15.30
2023-07-31T18:07:04.398Z,15.50
2023-07-31T18:12:07.197Z,14.90
2023-07-31T18:17:09.196Z,13.70
2023-07-31T18:22:11.057Z,13.60
2023-07-31T18:27:12.935Z,15.50
2023-07-31T18:32:14.958Z,16.90
2023-07-31T18:37:17.006Z,17.40
2023-07-31T18:42:18.882Z,14.20
2023-07-31T18:47:20.960Z,14.80
2023-07-31T18:52:22.950Z,16.50
2023-07-31T18:57:24.849Z,15.20
2023-07-31T19:02:26.814Z,13.10
2023-07-31T19:07:28.778Z,13.80
2023-07-31T19:12:30.556Z,13.10
2023-07-31T19:17:32.682Z,14.20
2023-07-31T19:22:34.725Z,14.40
2023-07-31T19:27:36.620Z,14.30
2023-07-31T19:32:38.631Z,12.70
2023-07-31T19:37:40.520Z,12.10
2023-07-31T19:42:42.237Z,10.80
2023-07-31T19:47:44.000Z,13.80
2023-07-31T19:52:45.901Z,12.80
2023-07-31T19:57:47.873Z,13.90
2023-07-31T20:02:49.794Z,16.40
2023-07-31T20:07:51.827Z,16.80
2023-07-31T20:12:53.621Z,13.30
2023-07-31T20:17:55.369Z,14.50
2023-07-31T20:22:59.696Z,17.30
2023-07-31T20:28:03.466Z,13.70
2023-07-31T20:33:05.245Z,15.20
2023-07-31T20:38:07.196Z,16.00
2023-07-31T20:43:09.051Z,17.70
2023-07-31T20:48:10.951Z,16.90
2023-07-31T20:53:12.785Z,15.80
2023-07-31T20:58:14.736Z,17.50
2023-07-31T21:03:16.550Z,15.70
2023-07-31T21:08:18.494Z,17.50
2023-07-31T21:13:20.282Z,13.80
2023-07-31T21:18:22.129Z,14.20
2023-07-31T21:23:23.999Z,14.00
2023-07-31T21:28:25.854Z,15.10
2023-07-31T21:33:27.567Z,14.00
2023-07-31T21:38:29.424Z,14.50
2023-07-31T21:43:31.304Z,15.50
2023-07-31T21:48:33.109Z,15.80
2023-07-31T21:53:34.855Z,17.20
2023-07-31T21:58:36.638Z,12.70
2023-07-31T22:03:38.621Z,14.20
2023-07-31T22:08:40.326Z,13.00
2023-07-31T22:13:42.193Z,11.80
2023-07-31T22:18:44.056Z,13.70
2023-07-31T22:23:46.025Z,12.80
2023-07-31T22:28:47.965Z,11.90
2023-07-31T22:33:51.425Z,12.50
2023-07-31T22:38:53.300Z,12.90
2023-07-31T22:43:55.139Z,12.70
2023-07-31T22:48:57.060Z,13.90
2023-07-31T22:53:58.933Z,10.40
2023-07-31T22:59:00.713Z,10.10
2023-07-31T23:04:02.412Z,12.90
2023-07-31T23:09:04.258Z,16.20
2023-07-31T23:14:06.037Z,11.80
2023-07-31T23:19:07.810Z,11.30
2023-07-31T23:24:09.729Z,10.60
2023-07-31T23:29:11.603Z,11.80
2023-07-31T23:34:13.374Z,11.10
2023-07-31T23:39:15.147Z,11.10
2023-07-31T23:44:16.764Z,10.40
2023-07-31T23:49:18.468Z,11.00
2023-07-31T23:54:20.195Z,11.40
2023-07-31T23:59:21.853Z,9.40
